sensor_id;sensor_type;location;lat;lon;timestamp;P1;durP1;ratioP1;P2;durP2;ratioP2
28802;SDS011;15949;55.656;37.422;2022-09-09T17:26:06;17.08;;;8.82;;
28802;SDS011;15949;55.656;37.422;2022-09-09T17:31:15;20.55;;;9.15;;
28802;SDS011;15949;55.656;37.422;2022-09-09T17:36:24;18.75;;;9.82;;
28802;SDS011;15949;55.656;37.422;2022-09-09T17:41:32;30.52;;;14.40;;
28802;SDS011;15949;55.656;37.422;2022-09-09T17:46:39;24.40;;;12.52;;
28802;SDS011;15949;55.656;37.422;2022-09-09T17:51:46;20.17;;;11.10;;
28802;SDS011;15949;55.656;37.422;2022-09-09T17:56:52;20.58;;;11.27;;
28802;SDS011;15949;55.656;37.422;2022-09-09T18:01:58;24.55;;;10.95;;
28802;SDS011;15949;55.656;37.422;2022-09-09T18:07:04;26.88;;;14.90;;
28802;SDS011;15949;55.656;37.422;2022-09-09T18:12:10;31.02;;;15.45;;
28802;SDS011;15949;55.656;37.422;2022-09-09T18:17:15;29.65;;;15.52;;
28802;SDS011;15949;55.656;37.422;2022-09-09T18:22:21;22.00;;;13.27;;
28802;SDS011;15949;55.656;37.422;2022-09-09T18:27:27;24.88;;;12.90;;
28802;SDS011;15949;55.656;37.422;2022-09-09T18:32:33;22.90;;;12.18;;
28802;SDS011;15949;55.656;37.422;2022-09-09T18:37:38;38.08;;;17.00;;
28802;SDS011;15949;55.656;37.422;2022-09-09T18:42:45;39.65;;;17.75;;
28802;SDS011;15949;55.656;37.422;2022-09-09T18:47:51;37.63;;;17.15;;
28802;SDS011;15949;55.656;37.422;2022-09-09T18:52:56;34.30;;;17.48;;
28802;SDS011;15949;55.656;37.422;2022-09-09T18:58:02;31.17;;;15.57;;
28802;SDS011;15949;55.656;37.422;2022-09-09T19:03:07;38.47;;;15.75;;
28802;SDS011;15949;55.656;37.422;2022-09-09T19:08:13;33.63;;;17.30;;
28802;SDS011;15949;55.656;37.422;2022-09-09T19:13:19;38.42;;;19.70;;
28802;SDS011;15949;55.656;37.422;2022-09-09T19:18:24;39.20;;;22.52;;
28802;SDS011;15949;55.656;37.422;2022-09-09T19:23:31;39.75;;;25.95;;
28802;SDS011;15949;55.656;37.422;2022-09-09T19:28:37;53.67;;;33.42;;
28802;SDS011;15949;55.656;37.422;2022-09-09T19:33:44;47.85;;;26.90;;
28802;SDS011;15949;55.656;37.422;2022-09-09T19:38:51;51.85;;;38.78;;
28802;SDS011;15949;55.656;37.422;2022-09-09T19:43:59;49.60;;;30.17;;
28802;SDS011;15949;55.656;37.422;2022-09-09T19:49:06;48.95;;;34.10;;
28802;SDS011;15949;55.656;37.422;2022-09-09T19:54:12;60.60;;;39.92;;
28802;SDS011;15949;55.656;37.422;2022-09-09T19:59:20;45.40;;;30.80;;
28802;SDS011;15949;55.656;37.422;2022-09-09T20:04:26;40.72;;;24.40;;
28802;SDS011;15949;55.656;37.422;2022-09-09T20:09:32;33.58;;;20.33;;
28802;SDS011;15949;55.656;37.422;2022-09-09T20:14:38;32.25;;;18.83;;
28802;SDS011;15949;55.656;37.422;2022-09-09T20:19:43;36.92;;;19.67;;
28802;SDS011;15949;55.656;37.422;2022-09-09T20:24:50;31.80;;;17.23;;
28802;SDS011;15949;55.656;37.422;2022-09-09T20:29:56;29.55;;;17.92;;
28802;SDS011;15949;55.656;37.422;2022-09-09T20:35:02;35.22;;;17.00;;
28802;SDS011;15949;55.656;37.422;2022-09-09T20:40:08;22.27;;;14.35;;
28802;SDS011;15949;55.656;37.422;2022-09-09T20:45:14;29.10;;;16.35;;
28802;SDS011;15949;55.656;37.422;2022-09-09T20:50:20;26.80;;;14.93;;
28802;SDS011;15949;55.656;37.422;2022-09-09T20:55:26;20.55;;;13.85;;
28802;SDS011;15949;55.656;37.422;2022-09-09T21:00:32;29.15;;;15.18;;
28802;SDS011;15949;55.656;37.422;2022-09-09T21:05:37;29.38;;;17.30;;
28802;SDS011;15949;55.656;37.422;2022-09-09T21:10:43;41.28;;;20.60;;
28802;SDS011;15949;55.656;37.422;2022-09-09T21:15:51;104.47;;;53.15;;
28802;SDS011;15949;55.656;37.422;2022-09-09T21:20:56;86.88;;;47.60;;
28802;SDS011;15949;55.656;37.422;2022-09-09T21:26:02;102.93;;;56.33;;
28802;SDS011;15949;55.656;37.422;2022-09-09T21:31:12;91.35;;;51.40;;
28802;SDS011;15949;55.656;37.422;2022-09-09T21:36:20;104.40;;;54.78;;
28802;SDS011;15949;55.656;37.422;2022-09-09T21:41:25;93.05;;;45.90;;
28802;SDS011;15949;55.656;37.422;2022-09-09T21:46:31;71.07;;;36.05;;
28802;SDS011;15949;55.656;37.422;2022-09-09T21:51:36;66.65;;;32.42;;
28802;SDS011;15949;55.656;37.422;2022-09-09T21:56:42;48.20;;;24.80;;
28802;SDS011;15949;55.656;37.422;2022-09-09T22:01:47;45.70;;;23.55;;
28802;SDS011;15949;55.656;37.422;2022-09-09T22:06:53;44.72;;;21.73;;
28802;SDS011;15949;55.656;37.422;2022-09-09T22:11:59;43.83;;;18.83;;
28802;SDS011;15949;55.656;37.422;2022-09-09T22:17:04;36.20;;;18.10;;
28802;SDS011;15949;55.656;37.422;2022-09-09T22:22:10;35.08;;;17.55;;
28802;SDS011;15949;55.656;37.422;2022-09-09T22:27:15;40.85;;;18.48;;
28802;SDS011;15949;55.656;37.422;2022-09-09T22:32:21;41.42;;;17.63;;
28802;SDS011;15949;55.656;37.422;2022-09-09T22:37:27;42.97;;;17.58;;
28802;SDS011;15949;55.656;37.422;2022-09-09T22:42:32;83.40;;;62.63;;
28802;SDS011;15949;55.656;37.422;2022-09-09T22:47:39;44.17;;;27.25;;
28802;SDS011;15949;55.656;37.422;2022-09-09T22:52:47;40.22;;;22.65;;
28802;SDS011;15949;55.656;37.422;2022-09-09T22:57:53;38.58;;;16.85;;
28802;SDS011;15949;55.656;37.422;2022-09-09T23:02:59;33.15;;;16.02;;
28802;SDS011;15949;55.656;37.422;2022-09-09T23:08:05;33.72;;;15.70;;
28802;SDS011;15949;55.656;37.422;2022-09-09T23:13:11;38.63;;;16.13;;
28802;SDS011;15949;55.656;37.422;2022-09-09T23:18:16;44.55;;;18.83;;
28802;SDS011;15949;55.656;37.422;2022-09-09T23:23:22;45.53;;;20.05;;
28802;SDS011;15949;55.656;37.422;2022-09-09T23:28:30;44.75;;;20.13;;
28802;SDS011;15949;55.656;37.422;2022-09-09T23:33:36;48.78;;;22.23;;
28802;SDS011;15949;55.656;37.422;2022-09-09T23:38:42;50.45;;;21.15;;
28802;SDS011;15949;55.656;37.422;2022-09-09T23:43:48;51.85;;;23.65;;
28802;SDS011;15949;55.656;37.422;2022-09-09T23:48:54;53.58;;;24.10;;
28802;SDS011;15949;55.656;37.422;2022-09-09T23:54:02;61.75;;;24.35;;
28802;SDS011;15949;55.656;37.422;2022-09-09T23:59:09;54.35;;;24.17;;
